createdAt,value
2023-12-13T00:01:13.305Z,100595.59
2023-12-13T00:03:41.317Z,100595.59
2023-12-13T00:06:09.500Z,100584.72
2023-12-13T00:08:37.388Z,100597.16
2023-12-13T00:11:06.855Z,100592.34
2023-12-13T00:13:35.095Z,100591.34
2023-12-13T00:16:03.394Z,100586.81
2023-12-13T00:18:31.552Z,100583.28
2023-12-13T00:20:59.464Z,100578.75
2023-12-13T00:23:27.389Z,100585.69
2023-12-13T00:25:55.262Z,100582.28
2023-12-13T00:28:27.199Z,100577.75
2023-12-13T00:30:55.298Z,100584.97
2023-12-13T00:33:23.382Z,100583.28
2023-12-13T00:35:51.353Z,100585.97
2023-12-13T00:38:19.206Z,100580.31
2023-12-13T00:40:47.430Z,100580.88
2023-12-13T00:43:15.378Z,100589.94
2023-12-13T00:45:44.868Z,100579.31
2023-12-13T00:48:12.860Z,100579.59
2023-12-13T00:50:40.819Z,100580.31
2023-12-13T00:53:09.012Z,100579.44
2023-12-13T00:55:36.992Z,100590.09
2023-12-13T00:58:04.945Z,100590.09
2023-12-13T01:00:32.798Z,100592.63
2023-12-13T01:03:02.060Z,100595.47
2023-12-13T01:05:30.004Z,100592.91
2023-12-13T01:07:58.066Z,100598.28
2023-12-13T01:10:26.049Z,100589.22
2023-12-13T01:12:54.222Z,100591.91
2023-12-13T01:15:22.123Z,100582.84
2023-12-13T01:17:50.141Z,100582.72
2023-12-13T01:20:19.537Z,100595.03
2023-12-13T01:22:47.544Z,100589.06
2023-12-13T01:25:15.575Z,100591.34
2023-12-13T01:27:44.020Z,100597.59
2023-12-13T01:30:12.653Z,100602.84
2023-12-13T01:32:40.690Z,100601.84
2023-12-13T01:35:09.719Z,100604.53
2023-12-13T01:37:38.975Z,100597.31
2023-12-13T01:40:09.305Z,100601.84
2023-12-13T01:42:39.281Z,100601.00
2023-12-13T01:45:09.195Z,100606.53
2023-12-13T01:47:37.381Z,100605.81
2023-12-13T01:50:06.405Z,100599.72
2023-12-13T01:55:03.999Z,100606.94
2023-12-13T01:57:32.168Z,100603.53
2023-12-13T02:00:00.242Z,100605.38
2023-12-13T02:02:28.233Z,100600.84
2023-12-13T02:04:56.988Z,100598.44
2023-12-13T02:07:25.023Z,100600.97
2023-12-13T02:09:52.923Z,100605.50
2023-12-13T02:12:22.353Z,100600.13
2023-12-13T02:14:50.246Z,100603.81
2023-12-13T02:17:18.153Z,100603.81
2023-12-13T02:19:46.037Z,100602.97
2023-12-13T02:22:15.425Z,100605.38
2023-12-13T02:24:46.388Z,100602.41
2023-12-13T02:27:15.139Z,100598.88
2023-12-13T02:29:43.538Z,100598.72
2023-12-13T02:32:11.494Z,100606.66
2023-12-13T02:34:39.444Z,100593.91
2023-12-13T02:37:07.386Z,100596.72
2023-12-13T02:39:37.051Z,100606.41
2023-12-13T02:42:05.800Z,100605.38
2023-12-13T02:44:33.678Z,100611.63
2023-12-13T02:47:02.359Z,100607.97
2023-12-13T02:49:30.496Z,100608.94
2023-12-13T02:51:58.590Z,100609.78
2023-12-13T02:54:26.485Z,100610.06
2023-12-13T02:56:55.810Z,100613.63
2023-12-13T02:59:23.752Z,100613.63
2023-12-13T03:01:51.785Z,100609.22
2023-12-13T03:04:19.745Z,100609.47
2023-12-13T03:06:48.061Z,100611.19
2023-12-13T03:09:16.215Z,100609.47
2023-12-13T03:11:44.133Z,100621.09
2023-12-13T03:14:13.460Z,100613.03
2023-12-13T03:16:41.439Z,100613.88
2023-12-13T03:19:09.555Z,100610.34
2023-12-13T03:21:37.530Z,100612.19
2023-12-13T03:24:05.751Z,100621.97
2023-12-13T03:26:33.631Z,100621.09
2023-12-13T03:29:01.646Z,100616.44
2023-12-13T03:31:31.018Z,100621.69
2023-12-13T03:33:58.971Z,100618.00
2023-12-13T03:36:27.054Z,100615.31
2023-12-13T03:41:22.897Z,100611.47
2023-12-13T03:43:50.906Z,100611.47
2023-12-13T03:46:18.985Z,100606.94
2023-12-13T03:48:48.341Z,100613.19
2023-12-13T03:51:16.247Z,100610.66
2023-12-13T03:53:44.277Z,100610.66
2023-12-13T03:56:12.449Z,100604.25
2023-12-13T03:58:39.638Z,100604.53
2023-12-13T04:01:09.583Z,100614.91
2023-12-13T04:03:38.131Z,100616.84
2023-12-13T04:06:08.499Z,100611.47
2023-12-13T04:08:36.477Z,100613.34
2023-12-13T04:11:04.522Z,100611.78
2023-12-13T04:13:32.488Z,100610.94
2023-12-13T04:16:00.374Z,100615.56
2023-12-13T04:18:28.396Z,100609.22
2023-12-13T04:20:56.412Z,100611.19
2023-12-13T04:23:26.125Z,100600.69
2023-12-13T04:25:54.066Z,100601.69
2023-12-13T04:28:22.003Z,100613.44
2023-12-13T04:30:50.619Z,100610.06
2023-12-13T04:33:19.992Z,100609.31
2023-12-13T04:35:48.473Z,100611.03
2023-12-13T04:38:16.435Z,100598.72
2023-12-13T04:40:45.829Z,100602.97
2023-12-13T04:43:13.799Z,100593.06
2023-12-13T04:45:41.725Z,100599.28
2023-12-13T04:48:09.837Z,100598.16
2023-12-13T04:50:37.896Z,100608.78
2023-12-13T04:53:05.765Z,100609.75
2023-12-13T04:55:34.544Z,100610.63
2023-12-13T04:58:03.892Z,100616.59
2023-12-13T05:00:31.793Z,100620.13
2023-12-13T05:02:59.745Z,100611.91
2023-12-13T05:05:27.625Z,100614.59
2023-12-13T05:07:55.713Z,100620.84
2023-12-13T05:10:23.640Z,100609.22
2023-12-13T05:12:51.603Z,100598.00
2023-12-13T05:15:20.886Z,100617.28
2023-12-13T05:17:48.831Z,100617.44
2023-12-13T05:20:16.966Z,100624.66
2023-12-13T05:22:44.947Z,100621.09
2023-12-13T05:25:12.879Z,100624.06
2023-12-13T05:27:40.988Z,100629.59
2023-12-13T05:30:09.670Z,100628.75
2023-12-13T05:32:39.042Z,100628.75
2023-12-13T05:35:07.424Z,100629.72
2023-12-13T05:37:35.544Z,100628.16
2023-12-13T05:40:05.112Z,100637.25
2023-12-13T05:42:34.635Z,100625.63
2023-12-13T05:45:02.760Z,100628.47
2023-12-13T05:47:30.981Z,100630.16
2023-12-13T05:50:00.315Z,100624.66
2023-12-13T05:52:28.812Z,100637.09
2023-12-13T05:54:56.710Z,100632.41
2023-12-13T05:57:24.670Z,100640.38
2023-12-13T05:59:52.538Z,100633.00
2023-12-13T06:04:48.236Z,100626.50
2023-12-13T06:07:17.639Z,100632.72
2023-12-13T06:09:45.841Z,100623.66
2023-12-13T06:12:14.547Z,100625.38
2023-12-13T06:14:42.402Z,100625.50
2023-12-13T06:17:10.311Z,100621.09
2023-12-13T06:19:38.225Z,100627.06
2023-12-13T06:22:08.218Z,100620.13
2023-12-13T06:24:37.462Z,100623.53
2023-12-13T06:27:05.996Z,100631.59
2023-12-13T06:29:33.888Z,100636.13
2023-12-13T06:32:02.001Z,100633.44
2023-12-13T06:34:29.908Z,100635.00
2023-12-13T06:36:57.835Z,100638.56
2023-12-13T06:39:24.737Z,100639.41
2023-12-13T06:41:54.094Z,100637.69
2023-12-13T06:44:22.475Z,100647.75
2023-12-13T06:46:51.539Z,100640.63
2023-12-13T06:49:19.769Z,100655.06
2023-12-13T06:51:47.933Z,100648.97
2023-12-13T06:54:15.858Z,100654.63
2023-12-13T06:56:43.789Z,100644.13
2023-12-13T06:59:13.040Z,100653.22
2023-12-13T07:01:41.461Z,100648.09
2023-12-13T07:04:09.414Z,100658.88
2023-12-13T07:06:37.352Z,100657.44
2023-12-13T07:09:06.662Z,100653.91
2023-12-13T07:11:34.564Z,100642.88
2023-12-13T07:14:03.196Z,100644.13
2023-12-13T07:16:32.618Z,100646.44
2023-12-13T07:19:00.602Z,100655.38
2023-12-13T07:21:28.541Z,100655.38
2023-12-13T07:23:56.406Z,100655.22
2023-12-13T07:26:26.828Z,100658.50
2023-12-13T07:28:56.375Z,100652.81
2023-12-13T07:33:53.901Z,100660.34
2023-12-13T07:36:21.805Z,100666.44
2023-12-13T07:38:49.759Z,100671.00
2023-12-13T07:41:17.620Z,100671.72
2023-12-13T07:43:46.356Z,100669.88
2023-12-13T07:46:14.595Z,100675.09
2023-12-13T07:48:43.690Z,100662.50
2023-12-13T07:51:14.050Z,100666.88
2023-12-13T07:53:43.404Z,100666.88
2023-12-13T07:56:17.809Z,100662.50
2023-12-13T07:58:52.035Z,100668.16
2023-12-13T08:01:20.043Z,100670.69
2023-12-13T08:03:48.068Z,100664.50
2023-12-13T08:06:20.041Z,100672.28
2023-12-13T08:08:48.492Z,100673.28
2023-12-13T08:11:16.886Z,100676.81
2023-12-13T08:13:45.167Z,100685.72
2023-12-13T08:16:13.175Z,100686.50
2023-12-13T08:18:41.384Z,100692.13
2023-12-13T08:21:10.376Z,100689.28
2023-12-13T08:23:40.617Z,100699.19
2023-12-13T08:26:08.537Z,100682.59
2023-12-13T08:28:37.165Z,100688.56
2023-12-13T08:31:16.996Z,100691.25
2023-12-13T08:33:49.390Z,100690.56
2023-12-13T08:36:17.741Z,100693.97
2023-12-13T08:38:47.117Z,100689.69
2023-12-13T08:41:17.179Z,100697.78
2023-12-13T08:43:45.131Z,100704.88
2023-12-13T08:46:13.680Z,100708.53
2023-12-13T08:48:42.013Z,100710.66
2023-12-13T08:51:11.331Z,100710.78
2023-12-13T08:56:10.800Z,100717.31
2023-12-13T08:58:39.004Z,100720.13
2023-12-13T09:01:07.676Z,100716.59
2023-12-13T09:03:35.652Z,100718.53
2023-12-13T09:06:03.790Z,100719.56
2023-12-13T09:08:31.727Z,100722.25
2023-12-13T09:10:59.639Z,100728.75
2023-12-13T09:13:29.080Z,100722.66
2023-12-13T09:15:57.014Z,100725.47
2023-12-13T09:18:25.138Z,100732.69
2023-12-13T09:20:53.097Z,100733.09
2023-12-13T09:23:24.890Z,100738.22
2023-12-13T09:25:53.790Z,100714.59
2023-12-13T09:28:21.861Z,100747.97
2023-12-13T09:30:51.207Z,100747.72
2023-12-13T09:33:18.193Z,100750.28
2023-12-13T09:35:46.213Z,100742.22
2023-12-13T09:38:14.130Z,100738.66
2023-12-13T09:40:42.159Z,100738.50
2023-12-13T09:43:11.003Z,100743.78
2023-12-13T09:45:41.476Z,100744.63
2023-12-13T09:48:13.329Z,100738.25
2023-12-13T09:50:43.222Z,100738.94
2023-12-13T09:53:13.042Z,100741.66
2023-12-13T09:55:41.948Z,100740.81
2023-12-13T09:58:09.814Z,100748.91
2023-12-13T10:00:37.730Z,100726.00
2023-12-13T10:03:06.648Z,100740.38
2023-12-13T10:05:40.791Z,100744.03
2023-12-13T10:08:11.601Z,100749.56
2023-12-13T10:10:39.526Z,100746.88
2023-12-13T10:13:08.856Z,100747.72
2023-12-13T10:15:35.744Z,100746.03
2023-12-13T10:18:04.863Z,100750.53
2023-12-13T10:20:35.245Z,100741.75
2023-12-13T10:23:06.485Z,100749.09
2023-12-13T10:25:34.735Z,100744.84
2023-12-13T10:28:05.419Z,100757.31
2023-12-13T10:30:34.318Z,100696.81
2023-12-13T10:33:02.338Z,100760.28
2023-12-13T10:35:30.235Z,100759.41
2023-12-13T10:38:03.194Z,100760.53
2023-12-13T10:40:32.537Z,100763.81
2023-12-13T10:43:01.795Z,100760.88
2023-12-13T10:45:29.692Z,100761.56
2023-12-13T10:48:02.681Z,100758.88
2023-12-13T10:50:31.863Z,100758.88
2023-12-13T10:53:02.710Z,100758.88
2023-12-13T10:55:32.495Z,100767.81
2023-12-13T10:58:00.645Z,100768.53
2023-12-13T11:00:29.426Z,100753.06
2023-12-13T11:03:04.660Z,100769.13
2023-12-13T11:05:32.829Z,100771.09
2023-12-13T11:08:00.799Z,100747.66
2023-12-13T11:10:28.772Z,100761.91
2023-12-13T11:13:00.225Z,100761.03
2023-12-13T11:15:30.120Z,100753.94
2023-12-13T11:18:01.200Z,100759.59
2023-12-13T11:20:29.509Z,100761.44
2023-12-13T11:22:58.389Z,100769.66
2023-12-13T11:25:37.212Z,100765.38
2023-12-13T11:28:06.598Z,100763.56
2023-12-13T11:30:34.932Z,100771.63
2023-12-13T11:33:13.356Z,100760.72
2023-12-13T11:35:41.760Z,100764.69
2023-12-13T11:38:10.069Z,100767.47
2023-12-13T11:40:38.333Z,100761.38
2023-12-13T11:43:07.612Z,100766.78
2023-12-13T11:45:35.533Z,100767.78
2023-12-13T11:48:04.194Z,100758.84
2023-12-13T11:50:32.203Z,100768.34
2023-12-13T11:53:00.803Z,100760.28
2023-12-13T11:55:28.765Z,100763.56
2023-12-13T11:57:59.445Z,100767.09
2023-12-13T12:00:29.974Z,100767.94
2023-12-13T12:02:57.942Z,100763.41
2023-12-13T12:05:26.264Z,100763.28
2023-12-13T12:07:58.460Z,100763.28
2023-12-13T12:10:26.651Z,100767.66
2023-12-13T12:12:54.552Z,100768.41
2023-12-13T12:15:23.170Z,100766.69
2023-12-13T12:17:52.991Z,100765.72
2023-12-13T12:20:21.247Z,100764.88
2023-12-13T12:22:49.692Z,100766.81
2023-12-13T12:25:18.815Z,100773.19
2023-12-13T12:27:47.947Z,100763.66
2023-12-13T12:30:17.772Z,100779.81
2023-12-13T12:32:45.876Z,100773.59
2023-12-13T12:35:15.266Z,100787.19
2023-12-13T12:37:43.605Z,100782.91
2023-12-13T12:40:11.640Z,100780.38
2023-12-13T12:42:39.601Z,100783.91
2023-12-13T12:45:08.712Z,100788.44
2023-12-13T12:47:37.014Z,100786.72
2023-12-13T12:50:05.908Z,100794.09
2023-12-13T12:52:35.564Z,100794.09
2023-12-13T12:55:05.257Z,100793.47
2023-12-13T12:57:33.415Z,100792.50
2023-12-13T13:00:01.403Z,100795.91
2023-12-13T13:02:29.790Z,100797.63
2023-12-13T13:04:57.808Z,100797.38
2023-12-13T13:07:25.870Z,100793.56
2023-12-13T13:09:55.335Z,100803.22
2023-12-13T13:12:23.564Z,100809.56
2023-12-13T13:14:51.589Z,100820.94
2023-12-13T13:17:19.520Z,100819.91
2023-12-13T13:19:47.404Z,100815.41
2023-12-13T13:22:22.409Z,100816.25
2023-12-13T13:24:53.407Z,100820.78
2023-12-13T13:27:28.470Z,100815.25
2023-12-13T13:29:57.893Z,100819.91
2023-12-13T13:32:26.299Z,100819.06
2023-12-13T13:34:54.579Z,100822.75
2023-12-13T13:37:22.645Z,100824.75
2023-12-13T13:39:50.613Z,100818.63
2023-12-13T13:42:19.172Z,100828.41
2023-12-13T13:44:48.481Z,100824.00
2023-12-13T13:47:16.395Z,100817.34
2023-12-13T13:49:44.502Z,100832.06
2023-12-13T13:52:12.476Z,100829.66
2023-12-13T13:54:40.876Z,100829.19
2023-12-13T13:57:09.415Z,100826.50
2023-12-13T13:59:37.691Z,100838.00
2023-12-13T14:02:07.946Z,100818.56
2023-12-13T14:04:36.116Z,100822.13
2023-12-13T14:07:06.807Z,100836.44
2023-12-13T14:09:35.089Z,100839.13
2023-12-13T14:12:03.010Z,100838.97
2023-12-13T14:14:30.882Z,100839.69
2023-12-13T14:16:58.807Z,100835.88
2023-12-13T14:19:28.222Z,100840.28
2023-12-13T14:21:56.135Z,100838.44
2023-12-13T14:24:24.211Z,100843.56
2023-12-13T14:26:52.128Z,100838.03
2023-12-13T14:29:21.178Z,100839.75
2023-12-13T14:31:50.251Z,100840.88
2023-12-13T14:34:21.017Z,100845.00
2023-12-13T14:36:51.066Z,100845.88
2023-12-13T14:39:19.735Z,100835.88
2023-12-13T14:41:47.723Z,100850.78
2023-12-13T14:44:15.909Z,100854.44
2023-12-13T14:46:43.894Z,100860.84
2023-12-13T14:49:12.391Z,100861.97
2023-12-13T14:51:40.931Z,100858.53
2023-12-13T14:54:10.302Z,100850.59
2023-12-13T14:56:38.277Z,100850.69
2023-12-13T14:59:06.444Z,100857.09
2023-12-13T15:01:34.502Z,100857.09
2023-12-13T15:04:03.626Z,100853.78
2023-12-13T15:06:33.600Z,100861.75
2023-12-13T15:09:01.558Z,100853.09
2023-12-13T15:11:31.909Z,100847.84
2023-12-13T15:13:59.893Z,100857.59
2023-12-13T15:16:28.045Z,100850.66
2023-12-13T15:18:56.025Z,100854.91
2023-12-13T15:21:23.914Z,100855.50
2023-12-13T15:23:52.076Z,100857.09
2023-12-13T15:26:20.193Z,100858.78
2023-12-13T15:28:49.658Z,100863.06
2023-12-13T15:31:17.701Z,100863.06
2023-12-13T15:33:46.290Z,100879.06
2023-12-13T15:36:15.665Z,100881.75
2023-12-13T15:38:43.611Z,100877.09
2023-12-13T15:41:11.579Z,100886.03
2023-12-13T15:43:39.530Z,100888.56
2023-12-13T15:46:08.960Z,100894.81
2023-12-13T15:48:36.871Z,100896.53
2023-12-13T15:51:05.467Z,100896.78
2023-12-13T15:53:33.932Z,100895.94
2023-12-13T15:56:01.984Z,100898.06
2023-12-13T15:58:30.299Z,100909.66
2023-12-13T16:00:58.297Z,100905.53
2023-12-13T16:03:27.589Z,100912.47
2023-12-13T16:05:55.639Z,100910.03
2023-12-13T16:08:23.688Z,100916.28
2023-12-13T16:10:51.775Z,100914.56
2023-12-13T16:13:19.702Z,100911.00
2023-12-13T16:15:47.612Z,100910.19
2023-12-13T16:18:15.703Z,100913.00
2023-12-13T16:20:45.096Z,100920.94
2023-12-13T16:23:13.085Z,100920.19
2023-12-13T16:25:41.560Z,100917.78
2023-12-13T16:28:09.544Z,100916.78
2023-12-13T16:30:37.689Z,100921.31
2023-12-13T16:33:05.670Z,100922.88
2023-12-13T16:35:33.653Z,100919.22
2023-12-13T16:38:03.061Z,100927.91
2023-12-13T16:40:31.086Z,100927.75
2023-12-13T16:43:00.686Z,100924.09
2023-12-13T16:45:29.524Z,100923.00
2023-12-13T16:47:58.063Z,100929.22
2023-12-13T16:50:27.132Z,100935.44
2023-12-13T16:52:55.133Z,100934.63
2023-12-13T16:55:24.890Z,100941.69
2023-12-13T16:57:52.831Z,100938.13
2023-12-13T17:00:21.544Z,100942.53
2023-12-13T17:02:49.539Z,100943.50
2023-12-13T17:05:17.942Z,100938.53
2023-12-13T17:07:46.208Z,100941.09
2023-12-13T17:10:14.481Z,100947.47
2023-12-13T17:12:43.809Z,100952.94
2023-12-13T17:15:13.017Z,100947.84
2023-12-13T17:17:41.097Z,100947.09
2023-12-13T17:20:10.043Z,100941.72
2023-12-13T17:22:38.306Z,100947.25
2023-12-13T17:25:08.442Z,100945.19
2023-12-13T17:27:36.795Z,100933.47
2023-12-13T17:30:07.187Z,100946.53
2023-12-13T17:32:35.387Z,100955.47
2023-12-13T17:35:03.573Z,100952.78
2023-12-13T17:37:31.499Z,100950.06
2023-12-13T17:39:59.380Z,100956.19
2023-12-13T17:42:29.754Z,100954.06
2023-12-13T17:44:58.027Z,100957.50
2023-12-13T17:47:27.459Z,100940.28
2023-12-13T17:49:55.657Z,100958.09
2023-12-13T17:52:23.782Z,100964.22
2023-12-13T17:54:51.791Z,100963.22
2023-12-13T17:57:19.752Z,100957.84
2023-12-13T17:59:48.609Z,100970.31
2023-12-13T18:02:20.290Z,100980.06
2023-12-13T18:04:49.924Z,100975.69
2023-12-13T18:07:17.866Z,100967.72
2023-12-13T18:09:47.958Z,100983.06
2023-12-13T18:12:15.913Z,100981.19
2023-12-13T18:14:44.476Z,100986.72
2023-12-13T18:17:13.262Z,100989.66
2023-12-13T18:19:41.319Z,100992.59
2023-12-13T18:22:10.593Z,100996.28
2023-12-13T18:24:38.466Z,100987.47
2023-12-13T18:27:06.773Z,100989.44
2023-12-13T18:29:34.700Z,100993.84
2023-12-13T18:32:03.836Z,100994.81
2023-12-13T18:34:32.329Z,101003.03
2023-12-13T18:37:00.622Z,100997.75
2023-12-13T18:39:29.962Z,100998.75
2023-12-13T18:41:57.461Z,101008.78
2023-12-13T18:44:25.367Z,101001.69
2023-12-13T18:46:55.565Z,101007.94
2023-12-13T18:49:29.510Z,101005.25
2023-12-13T18:51:57.746Z,101007.69
2023-12-13T18:54:28.868Z,101008.41
2023-12-13T18:56:58.233Z,101015.38
2023-12-13T18:59:26.167Z,101013.41
2023-12-13T19:01:54.381Z,101011.44
2023-12-13T19:04:22.758Z,101014.13
2023-12-13T19:06:52.395Z,101018.78
2023-12-13T19:09:20.560Z,101017.66
2023-12-13T19:11:48.695Z,100997.91
2023-12-13T19:14:18.113Z,101017.41
2023-12-13T19:16:48.267Z,101012.91
2023-12-13T19:19:17.376Z,101011.91
2023-12-13T19:21:46.859Z,101010.22
2023-12-13T19:24:15.013Z,101022.66
2023-12-13T19:26:42.972Z,101026.22
2023-12-13T19:29:12.982Z,101021.69
2023-12-13T19:31:42.342Z,101031.50
2023-12-13T19:34:17.793Z,101036.97
2023-12-13T19:36:50.664Z,101032.59
2023-12-13T19:39:18.579Z,101038.09
2023-12-13T19:41:46.447Z,101041.75
2023-12-13T19:44:14.386Z,101049.09
2023-12-13T19:46:43.722Z,101038.59
2023-12-13T19:49:11.674Z,101042.75
2023-12-13T19:51:39.616Z,101046.16
2023-12-13T19:54:09.351Z,101042.50
2023-12-13T19:56:37.351Z,101044.09
2023-12-13T19:59:05.298Z,101039.41
2023-12-13T20:01:33.358Z,101046.25
2023-12-13T20:04:02.932Z,101045.13
2023-12-13T20:06:30.884Z,101048.56
2023-12-13T20:08:58.772Z,101051.03
2023-12-13T20:11:26.735Z,101056.00
2023-12-13T20:13:57.276Z,101054.19
2023-12-13T20:16:26.408Z,101054.91
2023-12-13T20:18:54.399Z,101061.97
2023-12-13T20:21:23.714Z,101063.69
2023-12-13T20:26:19.344Z,101073.97
2023-12-13T20:28:47.317Z,101070.03
2023-12-13T20:31:15.229Z,101083.22
2023-12-13T20:33:43.145Z,101077.75
2023-12-13T20:36:12.885Z,101076.75
2023-12-13T20:38:42.291Z,101084.69
2023-12-13T20:41:10.423Z,101085.72
2023-12-13T20:43:38.413Z,101082.00
2023-12-13T20:46:06.539Z,101078.34
2023-12-13T20:48:34.513Z,101083.63
2023-12-13T20:51:02.453Z,101079.06
2023-12-13T20:53:30.409Z,101089.59
2023-12-13T20:55:59.724Z,101095.69
2023-12-13T20:58:27.973Z,101099.13
2023-12-13T21:00:55.987Z,101091.78
2023-12-13T21:03:23.982Z,101093.47
2023-12-13T21:05:52.048Z,101094.94
2023-12-13T21:08:20.001Z,101104.59
2023-12-13T21:10:48.036Z,101096.25
2023-12-13T21:13:17.297Z,101096.00
2023-12-13T21:15:45.237Z,101095.84
2023-12-13T21:18:13.363Z,101107.50
2023-12-13T21:20:41.410Z,101104.66
2023-12-13T21:23:10.561Z,101105.38
2023-12-13T21:25:39.587Z,101106.13
2023-12-13T21:28:07.514Z,101107.72
2023-12-13T21:30:36.943Z,101112.94
2023-12-13T21:33:05.052Z,101122.88
2023-12-13T21:35:32.997Z,101121.03
2023-12-13T21:38:00.916Z,101126.56
2023-12-13T21:40:28.943Z,101115.38
2023-12-13T21:42:56.836Z,101120.94
2023-12-13T21:45:24.772Z,101121.81
2023-12-13T21:47:54.046Z,101128.31
2023-12-13T21:50:22.262Z,101129.31
2023-12-13T21:52:50.169Z,101128.72
2023-12-13T21:55:18.189Z,101142.63
2023-12-13T21:57:46.078Z,101140.91
2023-12-13T22:00:15.099Z,101145.16
2023-12-13T22:02:43.042Z,101146.84
2023-12-13T22:05:12.627Z,101141.84
2023-12-13T22:07:40.615Z,101153.41
2023-12-13T22:10:09.813Z,101149.34
2023-12-13T22:12:37.712Z,101158.03
2023-12-13T22:15:06.424Z,101157.63
2023-12-13T22:17:38.034Z,101154.94
2023-12-13T22:20:16.796Z,101156.41
2023-12-13T22:22:47.111Z,101160.81
2023-12-13T22:25:18.882Z,101150.03
2023-12-13T22:27:46.929Z,101146.47
2023-12-13T22:30:15.458Z,101136.81
2023-12-13T22:32:43.779Z,101160.47
2023-12-13T22:35:12.753Z,101145.16
2023-12-13T22:37:41.049Z,101151.38
2023-12-13T22:40:11.705Z,101154.84
2023-12-13T22:42:39.732Z,101147.72
2023-12-13T22:45:08.237Z,101155.66
2023-12-13T22:47:36.150Z,101156.53
2023-12-13T22:50:04.578Z,101171.72
2023-12-13T22:52:33.169Z,101166.34
2023-12-13T22:55:01.123Z,101165.22
2023-12-13T22:57:30.387Z,101169.75
2023-12-13T22:59:58.399Z,101176.72
2023-12-13T23:02:27.797Z,101168.38
2023-12-13T23:04:55.884Z,101170.09
2023-12-13T23:07:24.131Z,101170.09
2023-12-13T23:09:52.017Z,101169.25
2023-12-13T23:12:19.957Z,101174.03
2023-12-13T23:14:49.326Z,101170.47
2023-12-13T23:17:17.331Z,101168.78
2023-12-13T23:19:45.643Z,101172.28
2023-12-13T23:22:13.789Z,101167.75
2023-12-13T23:24:41.668Z,101167.75
2023-12-13T23:27:09.641Z,101166.78
2023-12-13T23:29:38.898Z,101171.22
2023-12-13T23:32:08.761Z,101168.53
2023-12-13T23:34:36.730Z,101165.94
2023-12-13T23:37:04.980Z,101167.75
2023-12-13T23:39:32.924Z,101173.16
2023-12-13T23:42:00.825Z,101174.03
2023-12-13T23:44:28.715Z,101178.53
2023-12-13T23:46:58.709Z,101168.56
2023-12-13T23:49:28.051Z,101188.34
2023-12-13T23:51:55.939Z,101185.66
2023-12-13T23:54:23.843Z,101182.09
2023-12-13T23:56:51.721Z,101190.19
2023-12-13T23:59:19.661Z,101200.97
